createdAt,value
2019-01-16T00:00:17.557Z,82.80
2019-01-16T00:02:55.707Z,82.53
2019-01-16T00:05:51.922Z,82.65
2019-01-16T00:12:01.280Z,83.03
2019-01-16T00:14:54.528Z,83.44
2019-01-16T00:18:02.554Z,83.79
2019-01-16T00:21:10.893Z,84.01
2019-01-16T00:24:19.408Z,84.00
2019-01-16T00:27:27.462Z,84.05
2019-01-16T00:30:35.658Z,84.35
2019-01-16T00:33:33.900Z,84.60
2019-01-16T00:39:46.416Z,84.13
2019-01-16T00:42:54.430Z,83.60
2019-01-16T00:46:02.519Z,82.65
2019-01-16T00:49:03.887Z,82.19
2019-01-16T00:52:11.968Z,82.00
2019-01-16T00:55:39.523Z,81.92
2019-01-16T00:58:47.598Z,82.04
2019-01-16T01:01:55.659Z,82.26
2019-01-16T01:05:03.673Z,82.21
2019-01-16T01:08:11.792Z,82.12
2019-01-16T01:11:19.823Z,82.38
2019-01-16T01:14:27.909Z,82.00
2019-01-16T01:17:17.927Z,82.07
2019-01-16T01:20:26.757Z,81.90
2019-01-16T01:23:34.829Z,81.78
2019-01-16T01:26:42.831Z,81.58
2019-01-16T01:29:50.893Z,81.37
2019-01-16T01:32:58.942Z,81.29
2019-01-16T01:36:07.214Z,81.45
2019-01-16T01:39:15.502Z,81.80
2019-01-16T01:42:23.756Z,82.06
2019-01-16T01:45:31.927Z,82.18
2019-01-16T01:48:40.370Z,82.43
2019-01-16T01:51:48.384Z,82.36
2019-01-16T01:54:56.438Z,82.76
2019-01-16T01:58:04.758Z,83.08
2019-01-16T02:01:02.976Z,83.48
2019-01-16T02:04:11.020Z,83.22
2019-01-16T02:07:19.321Z,83.07
2019-01-16T02:10:28.356Z,83.01
2019-01-16T02:13:36.399Z,83.13
2019-01-16T02:16:28.976Z,82.87
2019-01-16T02:19:37.023Z,82.70
2019-01-16T02:22:45.327Z,82.25
2019-01-16T02:25:53.345Z,82.46
2019-01-16T02:28:55.117Z,82.57
2019-01-16T02:32:03.434Z,82.55
2019-01-16T02:35:02.385Z,82.28
2019-01-16T02:37:58.378Z,82.19
2019-01-16T02:41:06.409Z,82.30
2019-01-16T02:44:14.975Z,82.06
2019-01-16T02:47:13.100Z,82.25
2019-01-16T02:50:21.125Z,82.40
2019-01-16T02:53:29.415Z,82.54
2019-01-16T02:56:37.784Z,82.65
2019-01-16T02:59:45.802Z,82.67
2019-01-16T03:02:53.888Z,82.70
2019-01-16T03:06:01.902Z,82.32
2019-01-16T03:09:09.979Z,82.19
2019-01-16T03:12:18.008Z,81.86
2019-01-16T03:15:47.793Z,81.34
2019-01-16T03:18:48.912Z,81.55
2019-01-16T03:21:56.929Z,81.82
2019-01-16T03:25:04.976Z,82.21
2019-01-16T03:28:13.067Z,82.28
2019-01-16T03:34:38.524Z,82.55
2019-01-16T03:37:37.411Z,82.84
2019-01-16T03:40:45.740Z,83.12
2019-01-16T03:43:54.185Z,83.26
2019-01-16T03:47:02.248Z,83.28
2019-01-16T03:50:03.279Z,83.42
2019-01-16T03:53:11.358Z,83.80
2019-01-16T03:56:19.414Z,83.30
2019-01-16T03:59:27.464Z,82.99
2019-01-16T04:02:27.213Z,82.16
2019-01-16T04:05:35.518Z,81.62
2019-01-16T04:08:43.600Z,81.48
2019-01-16T04:11:51.918Z,80.93
2019-01-16T04:15:00.220Z,80.54
2019-01-16T04:18:04.297Z,80.20
2019-01-16T04:21:12.355Z,79.88
2019-01-16T04:24:20.419Z,79.61
2019-01-16T04:27:28.493Z,79.74
2019-01-16T04:30:36.616Z,79.56
2019-01-16T04:33:44.736Z,79.00
2019-01-16T04:36:52.782Z,78.71
2019-01-16T04:40:00.830Z,78.58
2019-01-16T04:43:08.880Z,78.24
2019-01-16T04:46:16.928Z,77.68
2019-01-16T04:49:16.379Z,77.54
2019-01-16T04:52:24.771Z,76.89
2019-01-16T04:55:25.526Z,76.71
2019-01-16T04:58:33.913Z,76.45
2019-01-16T05:01:42.226Z,76.43
2019-01-16T05:04:50.526Z,76.27
2019-01-16T05:07:53.481Z,76.39
2019-01-16T05:11:01.847Z,76.65
2019-01-16T05:14:09.887Z,76.88
2019-01-16T05:17:17.945Z,76.69
2019-01-16T05:20:13.583Z,76.62
2019-01-16T05:23:21.968Z,76.89
2019-01-16T05:26:30.005Z,77.40
2019-01-16T05:29:38.537Z,77.93
2019-01-16T05:32:46.596Z,77.78
2019-01-16T05:35:45.884Z,78.12
2019-01-16T05:38:53.914Z,78.14
2019-01-16T05:42:01.952Z,77.79
2019-01-16T05:45:09.993Z,77.96
2019-01-16T05:48:18.272Z,77.85
2019-01-16T05:51:26.340Z,77.88
2019-01-16T05:54:34.413Z,77.82
2019-01-16T05:57:13.021Z,78.05
2019-01-16T05:59:51.665Z,77.97
2019-01-16T06:02:48.117Z,77.91
2019-01-16T06:05:56.181Z,77.78
2019-01-16T06:08:54.960Z,77.91
2019-01-16T06:12:03.024Z,78.07
2019-01-16T06:15:11.052Z,78.31
2019-01-16T06:18:19.410Z,77.99
2019-01-16T06:21:20.657Z,78.23
2019-01-16T06:24:28.697Z,78.66
2019-01-16T06:27:29.854Z,78.59
2019-01-16T06:30:37.917Z,78.48
2019-01-16T06:33:45.959Z,78.41
2019-01-16T06:36:54.252Z,78.16
2019-01-16T06:40:02.306Z,78.18
2019-01-16T06:43:10.352Z,77.90
2019-01-16T06:46:18.665Z,77.75
2019-01-16T06:49:26.714Z,77.42
2019-01-16T06:52:22.503Z,77.41
2019-01-16T06:55:30.637Z,77.35
2019-01-16T06:58:38.927Z,77.38
2019-01-16T07:01:47.037Z,77.14
2019-01-16T07:04:55.062Z,77.05
2019-01-16T07:08:03.105Z,77.09
2019-01-16T07:11:11.168Z,77.04
2019-01-16T07:14:19.208Z,76.58
2019-01-16T07:17:27.507Z,76.57
2019-01-16T07:20:25.791Z,75.95
2019-01-16T07:23:22.893Z,76.03
2019-01-16T07:26:30.927Z,75.61
2019-01-16T07:29:38.987Z,74.92
2019-01-16T07:32:47.014Z,73.90
2019-01-16T07:35:55.075Z,73.12
2019-01-16T07:39:03.145Z,72.33
2019-01-16T07:42:11.430Z,71.90
2019-01-16T07:45:09.012Z,72.14
2019-01-16T07:48:17.059Z,71.80
2019-01-16T07:51:25.141Z,72.48
2019-01-16T07:54:33.204Z,72.46
2019-01-16T07:57:41.829Z,72.61
2019-01-16T08:00:44.292Z,72.10
2019-01-16T08:03:52.349Z,71.46
2019-01-16T08:07:00.401Z,71.21
2019-01-16T08:10:00.265Z,71.24
2019-01-16T08:13:08.540Z,70.87
2019-01-16T08:16:16.686Z,71.50
2019-01-16T08:19:25.101Z,70.89
2019-01-16T08:22:23.139Z,71.45
2019-01-16T08:25:31.224Z,71.55
2019-01-16T08:28:39.323Z,71.46
2019-01-16T08:31:47.613Z,72.20
2019-01-16T08:34:55.683Z,72.70
2019-01-16T08:38:03.759Z,73.13
2019-01-16T08:41:11.821Z,73.33
2019-01-16T08:44:19.884Z,73.82
2019-01-16T08:47:27.934Z,74.32
2019-01-16T08:50:36.149Z,74.38
2019-01-16T08:53:44.480Z,74.89
2019-01-16T08:56:52.555Z,73.58
2019-01-16T08:59:51.390Z,73.59
2019-01-16T09:02:59.411Z,73.54
2019-01-16T09:06:07.999Z,73.32
2019-01-16T09:09:16.289Z,73.31
2019-01-16T09:12:24.338Z,72.77
2019-01-16T09:15:34.888Z,72.65
2019-01-16T09:18:33.708Z,73.02
2019-01-16T09:21:34.999Z,72.76
2019-01-16T09:24:36.491Z,72.32
2019-01-16T09:27:44.540Z,72.33
2019-01-16T09:30:43.725Z,72.37
2019-01-16T09:33:51.753Z,72.34
2019-01-16T09:36:59.820Z,71.70
2019-01-16T09:40:07.886Z,70.88
2019-01-16T09:43:15.920Z,70.75
2019-01-16T09:46:24.261Z,70.26
2019-01-16T09:49:32.293Z,69.86
2019-01-16T09:52:40.365Z,69.96
2019-01-16T09:55:48.413Z,69.85
2019-01-16T09:58:48.087Z,70.02
2019-01-16T10:01:56.123Z,70.07
2019-01-16T10:05:04.208Z,69.90
2019-01-16T10:08:12.211Z,69.77
2019-01-16T10:11:20.251Z,69.26
2019-01-16T10:14:28.312Z,69.43
2019-01-16T10:17:36.556Z,69.29
2019-01-16T10:20:46.187Z,69.70
2019-01-16T10:23:48.601Z,70.19
2019-01-16T10:26:56.786Z,69.99
2019-01-16T10:29:44.670Z,71.61
2019-01-16T10:32:36.733Z,68.81
2019-01-16T10:35:41.685Z,68.77
2019-01-16T10:38:33.159Z,69.22
2019-01-16T10:41:25.125Z,69.27
2019-01-16T10:44:04.309Z,69.28
2019-01-16T10:47:11.220Z,68.83
2019-01-16T10:50:06.447Z,68.99
2019-01-16T10:52:54.160Z,68.66
2019-01-16T10:55:43.103Z,68.74
2019-01-16T10:58:41.373Z,69.34
2019-01-16T11:01:19.342Z,69.43
2019-01-16T11:04:07.553Z,68.94
2019-01-16T11:07:02.534Z,69.09
2019-01-16T11:09:57.638Z,69.12
2019-01-16T11:12:38.228Z,69.64
2019-01-16T11:15:21.370Z,69.83
2019-01-16T11:18:28.844Z,69.67
2019-01-16T11:21:30.255Z,70.01
2019-01-16T11:24:25.107Z,70.19
2019-01-16T11:27:20.291Z,70.00
2019-01-16T11:30:09.183Z,70.15
2019-01-16T11:33:04.656Z,70.43
2019-01-16T11:35:59.756Z,70.45
2019-01-16T11:38:45.618Z,70.38
2019-01-16T11:41:24.038Z,70.67
2019-01-16T11:44:02.939Z,71.22
2019-01-16T11:46:54.699Z,71.29
2019-01-16T11:49:41.013Z,71.23
2019-01-16T11:52:24.733Z,71.34
2019-01-16T11:55:06.125Z,70.86
2019-01-16T11:58:04.275Z,71.19
2019-01-16T12:00:52.168Z,70.98
2019-01-16T12:03:46.706Z,70.72
2019-01-16T12:06:34.473Z,70.74
2019-01-16T12:09:24.246Z,70.72
2019-01-16T12:12:05.838Z,70.89
2019-01-16T12:14:53.671Z,70.17
2019-01-16T12:17:32.784Z,69.51
2019-01-16T12:20:15.056Z,69.62
2019-01-16T12:23:06.234Z,69.43
2019-01-16T12:25:51.283Z,68.94
2019-01-16T12:28:45.974Z,69.09
2019-01-16T12:31:23.850Z,69.62
2019-01-16T12:34:11.714Z,69.62
2019-01-16T12:36:59.288Z,69.56
2019-01-16T12:39:45.474Z,69.38
2019-01-16T12:42:34.276Z,68.56
2019-01-16T12:45:29.438Z,68.09
2019-01-16T12:48:24.441Z,67.46
2019-01-16T12:51:11.005Z,66.73
2019-01-16T12:53:58.745Z,66.29
2019-01-16T12:56:37.838Z,67.07
2019-01-16T12:59:25.853Z,67.93
2019-01-16T13:02:33.497Z,67.73
2019-01-16T13:05:15.735Z,67.90
2019-01-16T13:08:15.820Z,67.95
2019-01-16T13:11:03.439Z,68.14
2019-01-16T13:13:50.948Z,68.39
2019-01-16T13:16:45.683Z,68.73
2019-01-16T13:19:26.291Z,68.21
2019-01-16T13:22:18.534Z,71.66
2019-01-16T13:25:19.752Z,68.64
2019-01-16T13:28:13.491Z,69.00
2019-01-16T13:31:01.325Z,69.12
2019-01-16T13:33:53.489Z,69.11
2019-01-16T13:36:42.010Z,69.30
2019-01-16T13:39:32.719Z,68.92
2019-01-16T13:42:14.007Z,68.49
2019-01-16T13:45:07.793Z,68.90
2019-01-16T13:47:55.586Z,68.79
2019-01-16T13:50:44.394Z,68.80
2019-01-16T13:53:36.396Z,68.98
2019-01-16T13:56:24.587Z,68.79
2019-01-16T13:59:18.003Z,69.05
2019-01-16T14:02:06.116Z,69.18
2019-01-16T14:04:48.111Z,69.31
2019-01-16T14:07:35.859Z,69.45
2019-01-16T14:10:15.157Z,69.60
2019-01-16T14:13:06.834Z,69.53
2019-01-16T14:15:58.953Z,69.31
2019-01-16T14:18:36.546Z,69.60
2019-01-16T14:21:21.532Z,69.48
2019-01-16T14:24:00.048Z,69.21
2019-01-16T14:26:46.113Z,69.65
2019-01-16T14:29:43.984Z,69.75
2019-01-16T14:32:27.259Z,69.34
2019-01-16T14:35:19.052Z,68.96
2019-01-16T14:38:06.937Z,69.11
2019-01-16T14:40:50.874Z,68.67
2019-01-16T14:43:30.277Z,68.95
2019-01-16T14:46:22.023Z,69.52
2019-01-16T14:49:05.671Z,69.92
2019-01-16T14:51:59.467Z,69.61
2019-01-16T14:54:50.546Z,69.43
2019-01-16T14:57:45.695Z,69.25
2019-01-16T15:00:39.529Z,69.18
2019-01-16T15:03:32.226Z,69.11
2019-01-16T15:06:29.789Z,69.34
2019-01-16T15:09:17.284Z,68.79
2019-01-16T15:12:09.248Z,69.15
2019-01-16T15:15:07.811Z,69.10
2019-01-16T15:17:55.952Z,68.81
2019-01-16T15:20:43.564Z,68.64
2019-01-16T15:23:24.119Z,68.83
2019-01-16T15:26:12.031Z,69.01
2019-01-16T15:29:09.447Z,69.07
2019-01-16T15:31:56.869Z,68.77
2019-01-16T15:34:40.012Z,69.31
2019-01-16T15:37:18.512Z,69.39
2019-01-16T15:40:26.063Z,69.58
2019-01-16T15:43:24.181Z,70.08
2019-01-16T15:46:22.204Z,70.66
2019-01-16T15:49:13.943Z,71.65
2019-01-16T15:52:05.576Z,71.78
2019-01-16T15:54:55.097Z,72.18
2019-01-16T15:57:33.651Z,71.93
2019-01-16T16:00:26.603Z,72.21
2019-01-16T16:03:25.731Z,71.97
2019-01-16T16:06:10.891Z,72.20
2019-01-16T16:08:59.407Z,72.22
2019-01-16T16:11:45.898Z,72.48
2019-01-16T16:14:25.460Z,72.24
2019-01-16T16:17:08.352Z,72.20
2019-01-16T16:20:03.283Z,72.23
2019-01-16T16:22:40.218Z,71.97
2019-01-16T16:25:38.581Z,71.97
2019-01-16T16:28:18.538Z,71.46
2019-01-16T16:31:10.309Z,71.38
2019-01-16T16:33:58.691Z,71.76
2019-01-16T16:36:43.075Z,71.40
2019-01-16T16:39:31.119Z,71.27
2019-01-16T16:42:28.025Z,70.71
2019-01-16T16:45:12.076Z,70.60
2019-01-16T16:48:07.273Z,69.61
2019-01-16T16:50:55.374Z,69.92
2019-01-16T16:53:37.179Z,69.95
2019-01-16T16:56:18.125Z,69.82
2019-01-16T16:59:10.832Z,69.79
2019-01-16T17:02:01.584Z,69.88
2019-01-16T17:04:53.494Z,69.77
2019-01-16T17:07:32.317Z,70.26
2019-01-16T17:10:23.296Z,70.68
2019-01-16T17:13:12.940Z,70.64
2019-01-16T17:16:01.545Z,70.82
2019-01-16T17:18:51.745Z,69.47
2019-01-16T17:21:48.159Z,69.00
2019-01-16T17:24:32.762Z,68.88
2019-01-16T17:27:21.570Z,69.15
2019-01-16T17:30:09.023Z,69.11
2019-01-16T17:33:01.018Z,68.83
2019-01-16T17:35:58.995Z,68.54
2019-01-16T17:38:40.410Z,68.37
2019-01-16T17:41:27.276Z,68.38
2019-01-16T17:44:12.606Z,67.96
2019-01-16T17:47:07.658Z,68.07
2019-01-16T17:49:57.084Z,68.06
2019-01-16T17:52:42.850Z,68.46
2019-01-16T17:55:25.768Z,68.88
2019-01-16T17:58:15.955Z,68.92
2019-01-16T18:01:03.502Z,69.30
2019-01-16T18:03:44.095Z,69.81
2019-01-16T18:06:26.315Z,69.90
2019-01-16T18:09:07.144Z,69.92
2019-01-16T18:11:57.652Z,70.04
2019-01-16T18:14:45.119Z,70.15
2019-01-16T18:17:34.135Z,69.80
2019-01-16T18:20:20.194Z,69.28
2019-01-16T18:23:21.109Z,69.60
2019-01-16T18:25:58.343Z,70.54
2019-01-16T18:28:36.718Z,70.43
2019-01-16T18:31:16.405Z,69.31
2019-01-16T18:34:04.918Z,68.62
2019-01-16T18:36:51.039Z,68.53
2019-01-16T18:39:55.385Z,69.44
2019-01-16T18:42:43.629Z,69.66
2019-01-16T18:45:24.217Z,69.39
2019-01-16T18:48:16.240Z,69.81
2019-01-16T18:51:17.248Z,69.79
2019-01-16T18:54:09.663Z,69.07
2019-01-16T18:56:57.409Z,68.41
2019-01-16T18:59:45.701Z,68.28
2019-01-16T19:02:31.498Z,68.40
2019-01-16T19:05:17.501Z,68.64
2019-01-16T19:08:21.974Z,69.14
2019-01-16T19:11:00.451Z,69.73
2019-01-16T19:13:42.511Z,70.32
2019-01-16T19:16:20.258Z,70.31
2019-01-16T19:19:00.742Z,69.16
2019-01-16T19:21:40.847Z,68.77
2019-01-16T19:24:20.662Z,68.36
2019-01-16T19:27:18.786Z,67.92
2019-01-16T19:30:10.289Z,67.89
2019-01-16T19:32:57.880Z,68.16
2019-01-16T19:35:42.030Z,68.08
2019-01-16T19:38:28.585Z,67.85
2019-01-16T19:41:16.121Z,68.13
2019-01-16T19:44:03.945Z,67.99
2019-01-16T19:46:44.070Z,68.35
2019-01-16T19:49:39.140Z,68.39
2019-01-16T19:52:28.045Z,68.50
2019-01-16T19:55:35.699Z,68.45
2019-01-16T19:58:37.237Z,69.10
2019-01-16T20:01:26.629Z,69.32
2019-01-16T20:04:22.161Z,69.43
2019-01-16T20:07:01.580Z,69.42
2019-01-16T20:09:44.355Z,69.09
2019-01-16T20:12:32.520Z,69.20
2019-01-16T20:15:16.132Z,69.59
2019-01-16T20:18:03.742Z,69.44
2019-01-16T20:20:55.303Z,69.81
2019-01-16T20:23:43.410Z,69.43
2019-01-16T20:26:41.081Z,69.59
2019-01-16T20:29:28.831Z,69.79
2019-01-16T20:32:10.413Z,70.13
2019-01-16T20:35:01.499Z,70.25
2019-01-16T20:37:59.032Z,70.45
2019-01-16T20:40:48.361Z,70.72
2019-01-16T20:43:52.545Z,70.85
2019-01-16T20:46:40.416Z,70.79
2019-01-16T20:49:31.973Z,71.25
2019-01-16T20:52:20.251Z,70.80
2019-01-16T20:55:12.107Z,70.78
2019-01-16T20:57:53.658Z,70.75
2019-01-16T21:00:56.526Z,70.95
2019-01-16T21:03:44.383Z,71.08
2019-01-16T21:06:30.596Z,71.34
2019-01-16T21:09:15.031Z,71.17
2019-01-16T21:12:01.625Z,71.37
2019-01-16T21:14:44.353Z,71.41
2019-01-16T21:17:24.080Z,71.66
2019-01-16T21:20:21.469Z,72.05
2019-01-16T21:23:04.319Z,72.11
2019-01-16T21:26:08.648Z,71.88
2019-01-16T21:29:06.600Z,72.18
2019-01-16T21:31:54.781Z,72.27
2019-01-16T21:34:39.661Z,72.24
2019-01-16T21:37:27.277Z,72.23
2019-01-16T21:40:20.408Z,72.27
2019-01-16T21:43:08.498Z,72.35
2019-01-16T21:46:15.565Z,72.55
2019-01-16T21:48:57.664Z,72.76
2019-01-16T21:51:54.327Z,72.83
2019-01-16T21:54:42.233Z,72.89
2019-01-16T21:57:23.349Z,72.88
2019-01-16T22:00:12.489Z,73.14
2019-01-16T22:03:01.362Z,73.46
2019-01-16T22:05:49.597Z,73.50
2019-01-16T22:08:29.977Z,73.40
2019-01-16T22:11:18.074Z,73.51
2019-01-16T22:13:59.111Z,73.33
2019-01-16T22:16:54.025Z,73.73
2019-01-16T22:19:58.379Z,73.83
2019-01-16T22:23:02.362Z,73.73
2019-01-16T22:25:51.315Z,73.69
2019-01-16T22:28:38.191Z,73.88
2019-01-16T22:31:26.078Z,74.28
2019-01-16T22:34:33.388Z,74.33
2019-01-16T22:37:22.820Z,74.50
2019-01-16T22:40:03.276Z,74.41
2019-01-16T22:43:00.126Z,74.07
2019-01-16T22:45:50.480Z,74.13
2019-01-16T22:48:39.802Z,73.81
2019-01-16T22:51:22.574Z,73.80
2019-01-16T22:54:04.028Z,73.62
2019-01-16T22:56:51.527Z,73.77
2019-01-16T22:59:42.256Z,73.86
2019-01-16T23:02:50.288Z,74.20
2019-01-16T23:05:58.322Z,74.35
2019-01-16T23:09:06.333Z,74.14
2019-01-16T23:12:14.667Z,74.11
2019-01-16T23:15:22.904Z,73.97
2019-01-16T23:18:11.688Z,73.93
2019-01-16T23:21:19.750Z,73.74
2019-01-16T23:24:27.775Z,73.70
2019-01-16T23:27:35.918Z,73.45
2019-01-16T23:30:44.171Z,73.69
2019-01-16T23:33:52.502Z,73.58
2019-01-16T23:37:00.638Z,73.41
2019-01-16T23:40:08.714Z,73.31
2019-01-16T23:43:09.560Z,73.22
2019-01-16T23:46:08.638Z,72.95
2019-01-16T23:49:16.712Z,72.25
2019-01-16T23:52:12.307Z,72.20
2019-01-16T23:55:20.341Z,71.97
2019-01-16T23:58:28.447Z,71.83
